sensor_id;sensor_type;location;lat;lon;timestamp;P1;durP1;ratioP1;P2;durP2;ratioP2
34982;SDS011;21187;50.976;13.720;2024-03-02T00:03:21;70.85;;;31.13;;
34982;SDS011;21187;50.976;13.720;2024-03-02T00:08:26;76.10;;;30.55;;
34982;SDS011;21187;50.976;13.720;2024-03-02T00:13:29;74.57;;;29.73;;
34982;SDS011;21187;50.976;13.720;2024-03-02T00:18:35;71.72;;;27.23;;
34982;SDS011;21187;50.976;13.720;2024-03-02T00:23:38;73.15;;;29.63;;
34982;SDS011;21187;50.976;13.720;2024-03-02T00:28:41;69.95;;;29.55;;
34982;SDS011;21187;50.976;13.720;2024-03-02T00:33:45;68.82;;;29.02;;
34982;SDS011;21187;50.976;13.720;2024-03-02T00:38:49;64.13;;;28.55;;
34982;SDS011;21187;50.976;13.720;2024-03-02T00:44:02;67.82;;;29.15;;
34982;SDS011;21187;50.976;13.720;2024-03-02T00:49:18;75.03;;;28.77;;
34982;SDS011;21187;50.976;13.720;2024-03-02T00:54:26;72.88;;;26.85;;
34982;SDS011;21187;50.976;13.720;2024-03-02T00:59:30;74.53;;;28.25;;
34982;SDS011;21187;50.976;13.720;2024-03-02T01:04:33;65.55;;;27.85;;
34982;SDS011;21187;50.976;13.720;2024-03-02T01:09:35;70.38;;;29.25;;
34982;SDS011;21187;50.976;13.720;2024-03-02T01:14:37;67.63;;;28.63;;
34982;SDS011;21187;50.976;13.720;2024-03-02T01:19:41;62.88;;;27.60;;
34982;SDS011;21187;50.976;13.720;2024-03-02T01:24:43;68.00;;;29.33;;
34982;SDS011;21187;50.976;13.720;2024-03-02T01:29:45;69.95;;;28.17;;
34982;SDS011;21187;50.976;13.720;2024-03-02T01:34:47;64.53;;;27.08;;
34982;SDS011;21187;50.976;13.720;2024-03-02T01:39:49;66.05;;;28.92;;
34982;SDS011;21187;50.976;13.720;2024-03-02T01:44:51;64.57;;;25.27;;
34982;SDS011;21187;50.976;13.720;2024-03-02T01:49:53;68.43;;;26.42;;
34982;SDS011;21187;50.976;13.720;2024-03-02T01:54:55;73.57;;;31.10;;
34982;SDS011;21187;50.976;13.720;2024-03-02T01:59:57;68.07;;;27.98;;
34982;SDS011;21187;50.976;13.720;2024-03-02T02:04:59;67.13;;;28.60;;
34982;SDS011;21187;50.976;13.720;2024-03-02T02:10:01;73.97;;;31.00;;
34982;SDS011;21187;50.976;13.720;2024-03-02T02:15:25;78.20;;;28.55;;
34982;SDS011;21187;50.976;13.720;2024-03-02T02:20:27;78.90;;;29.38;;
34982;SDS011;21187;50.976;13.720;2024-03-02T02:25:29;78.25;;;28.80;;
34982;SDS011;21187;50.976;13.720;2024-03-02T02:30:32;79.40;;;28.42;;
34982;SDS011;21187;50.976;13.720;2024-03-02T02:35:34;72.97;;;27.75;;
34982;SDS011;21187;50.976;13.720;2024-03-02T02:40:36;81.78;;;28.80;;
34982;SDS011;21187;50.976;13.720;2024-03-02T02:45:38;75.20;;;30.13;;
34982;SDS011;21187;50.976;13.720;2024-03-02T02:50:41;75.10;;;30.88;;
34982;SDS011;21187;50.976;13.720;2024-03-02T02:55:43;78.97;;;29.73;;
34982;SDS011;21187;50.976;13.720;2024-03-02T03:00:45;75.93;;;28.45;;
34982;SDS011;21187;50.976;13.720;2024-03-02T03:05:48;68.75;;;26.98;;
34982;SDS011;21187;50.976;13.720;2024-03-02T03:10:50;70.22;;;27.23;;
34982;SDS011;21187;50.976;13.720;2024-03-02T03:15:52;69.38;;;28.13;;
34982;SDS011;21187;50.976;13.720;2024-03-02T03:20:54;61.67;;;25.90;;
34982;SDS011;21187;50.976;13.720;2024-03-02T03:25:56;64.85;;;26.25;;
34982;SDS011;21187;50.976;13.720;2024-03-02T03:30:58;65.60;;;27.48;;
34982;SDS011;21187;50.976;13.720;2024-03-02T03:36:00;67.43;;;27.23;;
34982;SDS011;21187;50.976;13.720;2024-03-02T03:41:04;64.90;;;26.80;;
34982;SDS011;21187;50.976;13.720;2024-03-02T03:46:07;78.90;;;29.13;;
34982;SDS011;21187;50.976;13.720;2024-03-02T03:51:09;65.50;;;27.08;;
34982;SDS011;21187;50.976;13.720;2024-03-02T03:56:10;73.85;;;28.92;;
34982;SDS011;21187;50.976;13.720;2024-03-02T04:01:12;67.05;;;27.73;;
34982;SDS011;21187;50.976;13.720;2024-03-02T04:06:14;76.43;;;27.98;;
34982;SDS011;21187;50.976;13.720;2024-03-02T04:11:19;68.90;;;27.25;;
34982;SDS011;21187;50.976;13.720;2024-03-02T04:16:20;69.95;;;27.48;;
34982;SDS011;21187;50.976;13.720;2024-03-02T04:21:22;70.28;;;28.00;;
34982;SDS011;21187;50.976;13.720;2024-03-02T04:26:25;70.57;;;27.80;;
34982;SDS011;21187;50.976;13.720;2024-03-02T04:31:27;69.18;;;27.40;;
34982;SDS011;21187;50.976;13.720;2024-03-02T04:36:29;75.20;;;29.15;;
34982;SDS011;21187;50.976;13.720;2024-03-02T04:41:32;70.40;;;27.23;;
34982;SDS011;21187;50.976;13.720;2024-03-02T04:46:34;72.20;;;28.70;;
34982;SDS011;21187;50.976;13.720;2024-03-02T04:51:36;72.82;;;28.77;;
34982;SDS011;21187;50.976;13.720;2024-03-02T04:56:38;74.78;;;27.98;;
34982;SDS011;21187;50.976;13.720;2024-03-02T05:01:46;73.00;;;27.58;;
34982;SDS011;21187;50.976;13.720;2024-03-02T05:06:49;67.40;;;27.38;;
34982;SDS011;21187;50.976;13.720;2024-03-02T05:11:54;68.70;;;27.15;;
34982;SDS011;21187;50.976;13.720;2024-03-02T05:17:05;70.68;;;27.02;;
34982;SDS011;21187;50.976;13.720;2024-03-02T05:22:07;80.30;;;26.70;;
34982;SDS011;21187;50.976;13.720;2024-03-02T05:27:09;61.17;;;25.40;;
34982;SDS011;21187;50.976;13.720;2024-03-02T05:32:10;65.38;;;24.52;;
34982;SDS011;21187;50.976;13.720;2024-03-02T05:37:12;59.75;;;24.58;;
34982;SDS011;21187;50.976;13.720;2024-03-02T05:42:14;66.75;;;25.25;;
34982;SDS011;21187;50.976;13.720;2024-03-02T05:47:18;64.50;;;24.73;;
34982;SDS011;21187;50.976;13.720;2024-03-02T05:52:20;59.33;;;23.80;;
34982;SDS011;21187;50.976;13.720;2024-03-02T05:57:22;54.90;;;22.83;;
34982;SDS011;21187;50.976;13.720;2024-03-02T06:02:42;56.42;;;23.52;;
34982;SDS011;21187;50.976;13.720;2024-03-02T06:07:44;59.38;;;24.63;;
34982;SDS011;21187;50.976;13.720;2024-03-02T06:12:46;53.50;;;22.95;;
34982;SDS011;21187;50.976;13.720;2024-03-02T06:17:47;67.35;;;23.15;;
34982;SDS011;21187;50.976;13.720;2024-03-02T06:22:50;52.60;;;22.20;;
34982;SDS011;21187;50.976;13.720;2024-03-02T06:27:51;57.83;;;22.23;;
34982;SDS011;21187;50.976;13.720;2024-03-02T06:32:54;55.20;;;23.55;;
34982;SDS011;21187;50.976;13.720;2024-03-02T06:37:55;46.42;;;19.90;;
34982;SDS011;21187;50.976;13.720;2024-03-02T06:42:57;42.63;;;19.15;;
34982;SDS011;21187;50.976;13.720;2024-03-02T06:47:59;37.95;;;16.33;;
34982;SDS011;21187;50.976;13.720;2024-03-02T06:53:01;34.17;;;15.02;;
34982;SDS011;21187;50.976;13.720;2024-03-02T06:58:05;36.28;;;17.17;;
34982;SDS011;21187;50.976;13.720;2024-03-02T07:03:07;40.95;;;17.85;;
34982;SDS011;21187;50.976;13.720;2024-03-02T07:08:09;38.85;;;16.02;;
34982;SDS011;21187;50.976;13.720;2024-03-02T07:13:11;36.08;;;15.75;;
34982;SDS011;21187;50.976;13.720;2024-03-02T07:18:14;31.73;;;16.13;;
34982;SDS011;21187;50.976;13.720;2024-03-02T07:23:16;37.08;;;16.17;;
34982;SDS011;21187;50.976;13.720;2024-03-02T07:28:18;34.35;;;16.08;;
34982;SDS011;21187;50.976;13.720;2024-03-02T07:33:20;36.83;;;16.73;;
34982;SDS011;21187;50.976;13.720;2024-03-02T07:38:24;32.53;;;16.00;;
34982;SDS011;21187;50.976;13.720;2024-03-02T07:43:26;36.58;;;17.65;;
34982;SDS011;21187;50.976;13.720;2024-03-02T07:48:28;37.03;;;16.58;;
34982;SDS011;21187;50.976;13.720;2024-03-02T07:53:30;37.25;;;17.08;;
34982;SDS011;21187;50.976;13.720;2024-03-02T07:58:32;36.55;;;15.45;;
34982;SDS011;21187;50.976;13.720;2024-03-02T08:03:35;36.50;;;15.27;;
34982;SDS011;21187;50.976;13.720;2024-03-02T08:08:38;34.65;;;16.10;;
34982;SDS011;21187;50.976;13.720;2024-03-02T08:13:40;35.85;;;15.23;;
34982;SDS011;21187;50.976;13.720;2024-03-02T08:18:42;30.02;;;14.88;;
34982;SDS011;21187;50.976;13.720;2024-03-02T08:23:44;31.48;;;13.82;;
34982;SDS011;21187;50.976;13.720;2024-03-02T08:28:46;33.92;;;14.43;;
34982;SDS011;21187;50.976;13.720;2024-03-02T08:33:48;33.50;;;15.45;;
34982;SDS011;21187;50.976;13.720;2024-03-02T08:38:50;34.50;;;15.40;;
34982;SDS011;21187;50.976;13.720;2024-03-02T08:43:52;29.70;;;13.65;;
34982;SDS011;21187;50.976;13.720;2024-03-02T08:48:54;32.30;;;14.13;;
34982;SDS011;21187;50.976;13.720;2024-03-02T08:53:57;32.88;;;13.95;;
34982;SDS011;21187;50.976;13.720;2024-03-02T08:58:59;28.10;;;12.88;;
34982;SDS011;21187;50.976;13.720;2024-03-02T09:04:01;28.38;;;13.73;;
34982;SDS011;21187;50.976;13.720;2024-03-02T09:09:03;31.13;;;14.02;;
34982;SDS011;21187;50.976;13.720;2024-03-02T09:14:05;25.77;;;13.05;;
34982;SDS011;21187;50.976;13.720;2024-03-02T09:19:07;23.98;;;10.65;;
34982;SDS011;21187;50.976;13.720;2024-03-02T09:24:11;26.63;;;12.52;;
34982;SDS011;21187;50.976;13.720;2024-03-02T09:29:18;27.02;;;12.15;;
34982;SDS011;21187;50.976;13.720;2024-03-02T09:34:22;26.27;;;10.48;;
34982;SDS011;21187;50.976;13.720;2024-03-02T09:39:24;18.60;;;9.27;;
34982;SDS011;21187;50.976;13.720;2024-03-02T09:44:29;24.77;;;9.38;;
34982;SDS011;21187;50.976;13.720;2024-03-02T09:49:31;29.25;;;9.93;;
34982;SDS011;21187;50.976;13.720;2024-03-02T09:54:33;22.95;;;9.70;;
34982;SDS011;21187;50.976;13.720;2024-03-02T09:59:35;21.70;;;10.55;;
34982;SDS011;21187;50.976;13.720;2024-03-02T10:04:36;20.35;;;10.75;;
34982;SDS011;21187;50.976;13.720;2024-03-02T10:09:39;20.25;;;10.63;;
34982;SDS011;21187;50.976;13.720;2024-03-02T10:14:42;18.85;;;9.30;;
34982;SDS011;21187;50.976;13.720;2024-03-02T10:19:45;20.98;;;9.85;;
34982;SDS011;21187;50.976;13.720;2024-03-02T10:24:47;18.00;;;8.98;;
34982;SDS011;21187;50.976;13.720;2024-03-02T10:29:55;17.17;;;8.90;;
34982;SDS011;21187;50.976;13.720;2024-03-02T10:34:57;23.00;;;10.38;;
34982;SDS011;21187;50.976;13.720;2024-03-02T10:40:04;16.30;;;8.30;;
34982;SDS011;21187;50.976;13.720;2024-03-02T10:45:07;17.02;;;8.35;;
34982;SDS011;21187;50.976;13.720;2024-03-02T10:50:10;22.48;;;9.35;;
34982;SDS011;21187;50.976;13.720;2024-03-02T10:55:12;22.58;;;8.57;;
34982;SDS011;21187;50.976;13.720;2024-03-02T11:00:21;19.48;;;7.70;;
34982;SDS011;21187;50.976;13.720;2024-03-02T11:05:29;23.95;;;9.50;;
34982;SDS011;21187;50.976;13.720;2024-03-02T11:10:35;23.25;;;10.18;;
34982;SDS011;21187;50.976;13.720;2024-03-02T11:15:43;20.98;;;9.73;;
34982;SDS011;21187;50.976;13.720;2024-03-02T11:20:46;22.27;;;9.75;;
34982;SDS011;21187;50.976;13.720;2024-03-02T11:25:49;20.58;;;10.23;;
34982;SDS011;21187;50.976;13.720;2024-03-02T11:30:51;20.90;;;9.52;;
34982;SDS011;21187;50.976;13.720;2024-03-02T11:35:53;21.80;;;9.05;;
34982;SDS011;21187;50.976;13.720;2024-03-02T11:40:57;20.65;;;8.93;;
34982;SDS011;21187;50.976;13.720;2024-03-02T11:46:00;24.63;;;7.93;;
34982;SDS011;21187;50.976;13.720;2024-03-02T11:51:06;19.88;;;8.65;;
34982;SDS011;21187;50.976;13.720;2024-03-02T11:56:08;22.75;;;10.02;;
34982;SDS011;21187;50.976;13.720;2024-03-02T12:01:13;23.92;;;9.18;;
34982;SDS011;21187;50.976;13.720;2024-03-02T12:06:15;19.65;;;8.90;;
34982;SDS011;21187;50.976;13.720;2024-03-02T12:11:18;23.73;;;9.27;;
34982;SDS011;21187;50.976;13.720;2024-03-02T12:16:23;17.42;;;7.50;;
34982;SDS011;21187;50.976;13.720;2024-03-02T12:21:28;15.60;;;7.00;;
34982;SDS011;21187;50.976;13.720;2024-03-02T12:26:31;19.08;;;7.97;;
34982;SDS011;21187;50.976;13.720;2024-03-02T12:31:34;17.20;;;6.78;;
34982;SDS011;21187;50.976;13.720;2024-03-02T12:36:38;23.13;;;7.97;;
34982;SDS011;21187;50.976;13.720;2024-03-02T12:41:43;27.13;;;9.63;;
34982;SDS011;21187;50.976;13.720;2024-03-02T12:46:45;26.13;;;10.68;;
34982;SDS011;21187;50.976;13.720;2024-03-02T12:51:48;29.45;;;10.70;;
34982;SDS011;21187;50.976;13.720;2024-03-02T12:56:56;25.42;;;10.10;;
34982;SDS011;21187;50.976;13.720;2024-03-02T13:01:58;26.63;;;10.88;;
34982;SDS011;21187;50.976;13.720;2024-03-02T13:07:06;28.45;;;11.35;;
34982;SDS011;21187;50.976;13.720;2024-03-02T13:12:08;31.48;;;12.02;;
34982;SDS011;21187;50.976;13.720;2024-03-02T13:17:12;24.98;;;10.35;;
34982;SDS011;21187;50.976;13.720;2024-03-02T13:22:15;26.38;;;11.25;;
34982;SDS011;21187;50.976;13.720;2024-03-02T13:27:17;28.63;;;12.15;;
34982;SDS011;21187;50.976;13.720;2024-03-02T13:32:22;26.75;;;11.80;;
34982;SDS011;21187;50.976;13.720;2024-03-02T13:37:25;38.58;;;14.20;;
34982;SDS011;21187;50.976;13.720;2024-03-02T13:42:27;39.88;;;14.75;;
34982;SDS011;21187;50.976;13.720;2024-03-02T13:47:29;34.17;;;14.30;;
34982;SDS011;21187;50.976;13.720;2024-03-02T13:52:31;36.28;;;14.55;;
34982;SDS011;21187;50.976;13.720;2024-03-02T13:57:33;34.03;;;13.52;;
34982;SDS011;21187;50.976;13.720;2024-03-02T14:02:35;38.20;;;15.68;;
34982;SDS011;21187;50.976;13.720;2024-03-02T14:07:37;36.80;;;14.18;;
34982;SDS011;21187;50.976;13.720;2024-03-02T14:12:40;41.03;;;15.70;;
34982;SDS011;21187;50.976;13.720;2024-03-02T14:17:42;40.50;;;15.43;;
34982;SDS011;21187;50.976;13.720;2024-03-02T14:22:44;37.45;;;15.95;;
34982;SDS011;21187;50.976;13.720;2024-03-02T14:27:46;66.47;;;28.00;;
34982;SDS011;21187;50.976;13.720;2024-03-02T14:33:08;43.03;;;15.90;;
34982;SDS011;21187;50.976;13.720;2024-03-02T14:38:12;38.05;;;14.70;;
34982;SDS011;21187;50.976;13.720;2024-03-02T14:43:14;34.85;;;14.88;;
34982;SDS011;21187;50.976;13.720;2024-03-02T14:48:16;35.67;;;14.82;;
34982;SDS011;21187;50.976;13.720;2024-03-02T14:53:18;37.85;;;13.18;;
34982;SDS011;21187;50.976;13.720;2024-03-02T14:58:20;43.42;;;14.23;;
34982;SDS011;21187;50.976;13.720;2024-03-02T15:03:23;37.13;;;13.23;;
34982;SDS011;21187;50.976;13.720;2024-03-02T15:08:24;43.58;;;14.13;;
34982;SDS011;21187;50.976;13.720;2024-03-02T15:13:27;30.60;;;13.80;;
34982;SDS011;21187;50.976;13.720;2024-03-02T15:18:29;29.55;;;13.35;;
34982;SDS011;21187;50.976;13.720;2024-03-02T15:23:31;29.45;;;13.07;;
34982;SDS011;21187;50.976;13.720;2024-03-02T15:28:33;40.38;;;12.95;;
34982;SDS011;21187;50.976;13.720;2024-03-02T15:33:35;36.97;;;13.32;;
34982;SDS011;21187;50.976;13.720;2024-03-02T15:38:37;30.58;;;14.38;;
34982;SDS011;21187;50.976;13.720;2024-03-02T15:43:43;37.85;;;13.13;;
34982;SDS011;21187;50.976;13.720;2024-03-02T15:48:45;34.47;;;13.70;;
34982;SDS011;21187;50.976;13.720;2024-03-02T15:53:48;37.55;;;13.05;;
34982;SDS011;21187;50.976;13.720;2024-03-02T15:58:51;34.72;;;13.88;;
34982;SDS011;21187;50.976;13.720;2024-03-02T16:03:53;36.60;;;15.05;;
34982;SDS011;21187;50.976;13.720;2024-03-02T16:08:55;39.33;;;14.80;;
34982;SDS011;21187;50.976;13.720;2024-03-02T16:14:02;37.08;;;16.70;;
34982;SDS011;21187;50.976;13.720;2024-03-02T16:19:04;40.20;;;16.65;;
34982;SDS011;21187;50.976;13.720;2024-03-02T16:24:21;39.58;;;18.50;;
34982;SDS011;21187;50.976;13.720;2024-03-02T16:29:23;48.45;;;19.75;;
34982;SDS011;21187;50.976;13.720;2024-03-02T16:34:25;43.60;;;19.17;;
34982;SDS011;21187;50.976;13.720;2024-03-02T16:39:28;40.35;;;17.65;;
34982;SDS011;21187;50.976;13.720;2024-03-02T16:44:31;36.67;;;17.33;;
34982;SDS011;21187;50.976;13.720;2024-03-02T16:49:33;33.53;;;14.90;;
34982;SDS011;21187;50.976;13.720;2024-03-02T16:54:35;38.40;;;16.52;;
34982;SDS011;21187;50.976;13.720;2024-03-02T16:59:37;41.92;;;17.63;;
34982;SDS011;21187;50.976;13.720;2024-03-02T17:04:39;33.20;;;15.88;;
34982;SDS011;21187;50.976;13.720;2024-03-02T17:09:45;29.42;;;14.48;;
34982;SDS011;21187;50.976;13.720;2024-03-02T17:14:47;32.42;;;14.15;;
34982;SDS011;21187;50.976;13.720;2024-03-02T17:19:49;32.22;;;13.73;;
34982;SDS011;21187;50.976;13.720;2024-03-02T17:24:51;30.90;;;14.02;;
34982;SDS011;21187;50.976;13.720;2024-03-02T17:29:57;34.70;;;15.60;;
34982;SDS011;21187;50.976;13.720;2024-03-02T17:34:59;40.47;;;15.35;;
34982;SDS011;21187;50.976;13.720;2024-03-02T17:40:01;29.73;;;15.15;;
34982;SDS011;21187;50.976;13.720;2024-03-02T17:45:04;33.85;;;15.75;;
34982;SDS011;21187;50.976;13.720;2024-03-02T17:50:07;38.00;;;15.05;;
34982;SDS011;21187;50.976;13.720;2024-03-02T17:55:09;37.15;;;16.65;;
34982;SDS011;21187;50.976;13.720;2024-03-02T18:00:11;36.28;;;15.85;;
34982;SDS011;21187;50.976;13.720;2024-03-02T18:05:15;42.78;;;16.90;;
34982;SDS011;21187;50.976;13.720;2024-03-02T18:10:17;35.47;;;16.55;;
34982;SDS011;21187;50.976;13.720;2024-03-02T18:15:19;33.70;;;15.45;;
34982;SDS011;21187;50.976;13.720;2024-03-02T18:20:21;41.42;;;15.85;;
34982;SDS011;21187;50.976;13.720;2024-03-02T18:25:23;36.35;;;15.10;;
34982;SDS011;21187;50.976;13.720;2024-03-02T18:30:25;31.05;;;15.73;;
34982;SDS011;21187;50.976;13.720;2024-03-02T18:35:27;31.67;;;14.75;;
34982;SDS011;21187;50.976;13.720;2024-03-02T18:40:30;33.20;;;15.07;;
34982;SDS011;21187;50.976;13.720;2024-03-02T18:45:32;40.28;;;16.98;;
34982;SDS011;21187;50.976;13.720;2024-03-02T18:50:34;33.42;;;14.98;;
34982;SDS011;21187;50.976;13.720;2024-03-02T18:55:36;37.13;;;17.10;;
34982;SDS011;21187;50.976;13.720;2024-03-02T19:00:39;43.67;;;17.05;;
34982;SDS011;21187;50.976;13.720;2024-03-02T19:05:42;41.65;;;16.77;;
34982;SDS011;21187;50.976;13.720;2024-03-02T19:10:45;36.17;;;16.48;;
34982;SDS011;21187;50.976;13.720;2024-03-02T19:15:47;39.47;;;16.38;;
34982;SDS011;21187;50.976;13.720;2024-03-02T19:20:52;37.97;;;16.83;;
34982;SDS011;21187;50.976;13.720;2024-03-02T19:25:55;36.65;;;17.00;;
34982;SDS011;21187;50.976;13.720;2024-03-02T19:30:58;48.85;;;20.25;;
34982;SDS011;21187;50.976;13.720;2024-03-02T19:36:01;38.33;;;17.90;;
34982;SDS011;21187;50.976;13.720;2024-03-02T19:41:05;43.03;;;18.50;;
34982;SDS011;21187;50.976;13.720;2024-03-02T19:46:07;39.97;;;16.33;;
34982;SDS011;21187;50.976;13.720;2024-03-02T19:51:09;39.13;;;16.98;;
34982;SDS011;21187;50.976;13.720;2024-03-02T19:56:16;38.78;;;17.33;;
34982;SDS011;21187;50.976;13.720;2024-03-02T20:01:19;49.70;;;19.23;;
34982;SDS011;21187;50.976;13.720;2024-03-02T20:06:22;39.17;;;17.67;;
34982;SDS011;21187;50.976;13.720;2024-03-02T20:11:24;44.83;;;18.58;;
34982;SDS011;21187;50.976;13.720;2024-03-02T20:16:26;46.10;;;20.13;;
34982;SDS011;21187;50.976;13.720;2024-03-02T20:21:29;46.53;;;18.23;;
34982;SDS011;21187;50.976;13.720;2024-03-02T20:26:31;45.83;;;18.52;;
34982;SDS011;21187;50.976;13.720;2024-03-02T20:31:36;42.38;;;18.42;;
34982;SDS011;21187;50.976;13.720;2024-03-02T20:36:39;49.03;;;19.45;;
34982;SDS011;21187;50.976;13.720;2024-03-02T20:41:44;48.63;;;21.70;;
34982;SDS011;21187;50.976;13.720;2024-03-02T20:46:47;53.33;;;23.02;;
34982;SDS011;21187;50.976;13.720;2024-03-02T20:51:49;50.15;;;21.98;;
34982;SDS011;21187;50.976;13.720;2024-03-02T20:56:51;59.88;;;24.25;;
34982;SDS011;21187;50.976;13.720;2024-03-02T21:01:54;54.25;;;24.13;;
34982;SDS011;21187;50.976;13.720;2024-03-02T21:06:56;58.22;;;22.55;;
34982;SDS011;21187;50.976;13.720;2024-03-02T21:11:58;56.60;;;23.98;;
34982;SDS011;21187;50.976;13.720;2024-03-02T21:17:00;55.97;;;25.23;;
34982;SDS011;21187;50.976;13.720;2024-03-02T21:22:02;66.40;;;26.15;;
34982;SDS011;21187;50.976;13.720;2024-03-02T21:27:09;64.47;;;24.48;;
34982;SDS011;21187;50.976;13.720;2024-03-02T21:32:12;57.90;;;23.85;;
34982;SDS011;21187;50.976;13.720;2024-03-02T21:37:14;52.55;;;23.73;;
34982;SDS011;21187;50.976;13.720;2024-03-02T21:42:16;56.05;;;24.80;;
34982;SDS011;21187;50.976;13.720;2024-03-02T21:47:18;52.92;;;23.15;;
34982;SDS011;21187;50.976;13.720;2024-03-02T21:52:20;53.22;;;22.63;;
34982;SDS011;21187;50.976;13.720;2024-03-02T21:57:22;55.28;;;23.90;;
34982;SDS011;21187;50.976;13.720;2024-03-02T22:02:26;60.28;;;24.33;;
34982;SDS011;21187;50.976;13.720;2024-03-02T22:07:28;57.97;;;24.15;;
34982;SDS011;21187;50.976;13.720;2024-03-02T22:12:30;59.72;;;23.75;;
34982;SDS011;21187;50.976;13.720;2024-03-02T22:17:32;71.43;;;28.90;;
34982;SDS011;21187;50.976;13.720;2024-03-02T22:22:34;78.47;;;30.55;;
34982;SDS011;21187;50.976;13.720;2024-03-02T22:27:39;64.72;;;28.90;;
34982;SDS011;21187;50.976;13.720;2024-03-02T22:32:43;67.72;;;29.98;;
34982;SDS011;21187;50.976;13.720;2024-03-02T22:37:46;69.90;;;29.10;;
34982;SDS011;21187;50.976;13.720;2024-03-02T22:42:48;77.53;;;29.27;;
34982;SDS011;21187;50.976;13.720;2024-03-02T22:47:50;68.72;;;28.63;;
34982;SDS011;21187;50.976;13.720;2024-03-02T22:52:55;58.90;;;26.08;;
34982;SDS011;21187;50.976;13.720;2024-03-02T22:57:57;52.97;;;24.48;;
34982;SDS011;21187;50.976;13.720;2024-03-02T23:02:59;57.53;;;26.63;;
34982;SDS011;21187;50.976;13.720;2024-03-02T23:08:02;54.28;;;24.05;;
34982;SDS011;21187;50.976;13.720;2024-03-02T23:13:04;48.95;;;22.90;;
34982;SDS011;21187;50.976;13.720;2024-03-02T23:18:07;53.42;;;22.65;;
34982;SDS011;21187;50.976;13.720;2024-03-02T23:23:09;61.20;;;23.17;;
34982;SDS011;21187;50.976;13.720;2024-03-02T23:28:11;47.53;;;20.67;;
34982;SDS011;21187;50.976;13.720;2024-03-02T23:33:13;45.88;;;20.52;;
34982;SDS011;21187;50.976;13.720;2024-03-02T23:38:15;47.55;;;21.33;;
34982;SDS011;21187;50.976;13.720;2024-03-02T23:43:17;47.50;;;19.40;;
34982;SDS011;21187;50.976;13.720;2024-03-02T23:48:19;46.13;;;19.73;;
34982;SDS011;21187;50.976;13.720;2024-03-02T23:53:21;39.83;;;17.23;;
34982;SDS011;21187;50.976;13.720;2024-03-02T23:58:23;42.50;;;18.98;;
